Time;durP1;ratioP1;P1;durP2;ratioP2;P2;SDS_P1;SDS_P2;PMS_P1;PMS_P2;Temp;Humidity;BMP_temperature;BMP_pressure;BME280_temperature;BME280_humidity;BME280_pressure;Samples;Min_cycle;Max_cycle;Signal;HPM_P1;HPM_P2
2023/05/18 00:02:06;;;;;;;10.00;3.20;;;;;;;;;;5103865;27;20075;-71
2023/05/18 00:04:33;;;;;;;8.68;3.25;;;;;;;;;;5099642;27;21498;-71
2023/05/18 00:07:02;;;;;;;7.78;3.00;;;;;;;;;;5107954;27;20050;-71
2023/05/18 00:09:32;;;;;;;10.63;3.83;;;;;;;;;;5107530;28;20019;-71
2023/05/18 00:11:58;;;;;;;10.95;3.60;;;;;;;;;;5107666;27;20040;-71
2023/05/18 00:14:24;;;;;;;9.52;3.05;;;;;;;;;;5106431;27;20450;-71
2023/05/18 00:16:52;;;;;;;7.63;3.78;;;;;;;;;;5105926;28;20032;-71
2023/05/18 00:19:19;;;;;;;11.10;3.25;;;;;;;;;;5099191;27;20127;-71
2023/05/18 00:21:45;;;;;;;13.07;3.78;;;;;;;;;;5097692;28;20069;-71
2023/05/18 00:24:12;;;;;;;14.55;3.75;;;;;;;;;;5103831;27;20032;-71
2023/05/18 00:26:38;;;;;;;9.43;3.28;;;;;;;;;;5098169;27;20767;-71
2023/05/18 00:29:04;;;;;;;8.25;3.40;;;;;;;;;;5100934;27;20040;-71
2023/05/18 00:31:34;;;;;;;12.93;3.33;;;;;;;;;;5105033;27;20053;-71
2023/05/18 00:34:00;;;;;;;5.97;3.10;;;;;;;;;;5101000;28;20022;-71
2023/05/18 00:36:26;;;;;;;7.55;3.10;;;;;;;;;;5095703;27;20467;-71
2023/05/18 00:38:51;;;;;;;12.30;3.30;;;;;;;;;;5098438;28;20039;-71
2023/05/18 00:41:16;;;;;;;10.95;3.30;;;;;;;;;;5095572;27;20070;-71
2023/05/18 00:43:42;;;;;;;7.72;2.95;;;;;;;;;;5111921;28;20039;-71
2023/05/18 00:46:07;;;;;;;8.25;3.30;;;;;;;;;;5115322;27;20026;-70
2023/05/18 00:48:32;;;;;;;12.43;3.45;;;;;;;;;;5104122;28;20027;-71
2023/05/18 00:50:58;;;;;;;7.88;3.42;;;;;;;;;;5104087;27;20122;-71
2023/05/18 00:53:23;;;;;;;15.50;3.33;;;;;;;;;;5095371;28;20059;-71
2023/05/18 00:55:48;;;;;;;13.93;3.42;;;;;;;;;;5093957;28;20501;-71
2023/05/18 00:58:15;;;;;;;10.90;3.13;;;;;;;;;;5100762;27;20038;-71
2023/05/18 01:00:40;;;;;;;7.47;3.05;;;;;;;;;;5102364;28;20079;-71
2023/05/18 01:03:09;;;;;;;11.77;3.42;;;;;;;;;;5104492;27;20070;-71
2023/05/18 01:05:34;;;;;;;8.27;3.50;;;;;;;;;;5101197;27;20039;-71
2023/05/18 01:08:01;;;;;;;11.52;3.28;;;;;;;;;;5092295;28;20097;-71
2023/05/18 01:10:27;;;;;;;8.88;3.55;;;;;;;;;;5102287;27;20111;-71
2023/05/18 01:13:05;;;;;;;10.50;3.35;;;;;;;;;;5101063;28;20114;-71
2023/05/18 01:15:34;;;;;;;11.25;3.38;;;;;;;;;;5092472;28;20036;-71
2023/05/18 01:18:25;;;;;;;10.15;3.40;;;;;;;;;;5098846;27;20498;-71
2023/05/18 01:21:13;;;;;;;9.88;3.40;;;;;;;;;;5105292;27;20043;-71
2023/05/18 01:23:57;;;;;;;12.35;3.10;;;;;;;;;;5100781;27;20039;-71
2023/05/18 01:26:32;;;;;;;9.43;3.40;;;;;;;;;;5102971;27;20035;-71
2023/05/18 01:28:59;;;;;;;9.18;3.80;;;;;;;;;;5104367;27;20396;-71
2023/05/18 01:31:25;;;;;;;6.68;3.10;;;;;;;;;;5099694;27;20028;-71
2023/05/18 01:33:51;;;;;;;8.70;3.15;;;;;;;;;;5094353;28;20088;-71
2023/05/18 01:36:16;;;;;;;9.57;3.08;;;;;;;;;;5099340;28;20031;-71
2023/05/18 01:38:41;;;;;;;10.93;3.40;;;;;;;;;;5098959;27;20111;-71
2023/05/18 01:41:20;;;;;;;11.40;3.95;;;;;;;;;;5092227;28;20613;-71
2023/05/18 01:43:54;;;;;;;8.55;3.33;;;;;;;;;;5105150;27;20035;-71
2023/05/18 01:46:32;;;;;;;8.95;3.38;;;;;;;;;;5093307;28;20032;-71
2023/05/18 01:49:04;;;;;;;7.50;2.88;;;;;;;;;;5098770;27;20073;-71
2023/05/18 01:51:35;;;;;;;8.90;3.63;;;;;;;;;;5098020;28;20030;-71
2023/05/18 01:54:06;;;;;;;5.97;3.10;;;;;;;;;;5088666;28;20032;-71
2023/05/18 01:56:33;;;;;;;10.38;2.95;;;;;;;;;;5105113;27;20055;-71
2023/05/18 01:58:58;;;;;;;7.68;2.92;;;;;;;;;;5103285;28;20074;-71
2023/05/18 02:01:24;;;;;;;7.03;3.10;;;;;;;;;;5105453;27;20544;-71
2023/05/18 02:03:49;;;;;;;9.52;3.00;;;;;;;;;;5094391;27;20392;-71
2023/05/18 02:06:15;;;;;;;8.63;3.60;;;;;;;;;;5099372;27;20036;-71
2023/05/18 02:08:40;;;;;;;10.23;2.92;;;;;;;;;;5113349;27;20060;-71
2023/05/18 02:11:06;;;;;;;9.05;3.38;;;;;;;;;;5103893;27;20028;-71
2023/05/18 02:13:31;;;;;;;7.78;2.90;;;;;;;;;;5094216;28;20122;-71
2023/05/18 02:15:56;;;;;;;7.05;2.80;;;;;;;;;;5093939;28;20020;-71
2023/05/18 02:18:22;;;;;;;6.97;2.90;;;;;;;;;;5102760;27;20019;-71
2023/05/18 02:20:48;;;;;;;15.30;3.35;;;;;;;;;;5094815;28;20039;-71
2023/05/18 02:23:14;;;;;;;9.68;2.90;;;;;;;;;;5104625;28;20385;-71
2023/05/18 02:25:40;;;;;;;9.18;3.50;;;;;;;;;;5095305;27;20035;-72
2023/05/18 02:28:06;;;;;;;8.45;3.08;;;;;;;;;;5104528;27;20023;-72
2023/05/18 02:30:33;;;;;;;9.40;3.33;;;;;;;;;;5095945;28;20020;-71
2023/05/18 02:32:58;;;;;;;12.95;3.63;;;;;;;;;;5094108;27;20028;-71
2023/05/18 02:35:23;;;;;;;9.13;3.38;;;;;;;;;;5095025;28;20038;-71
2023/05/18 02:37:49;;;;;;;13.10;3.65;;;;;;;;;;5093259;28;20454;-71
2023/05/18 02:40:15;;;;;;;10.57;3.28;;;;;;;;;;5087975;28;20044;-71
2023/05/18 02:42:41;;;;;;;8.25;3.47;;;;;;;;;;5094131;28;20015;-71
2023/05/18 02:45:07;;;;;;;8.18;3.22;;;;;;;;;;5102102;28;20028;-71
2023/05/18 02:47:33;;;;;;;7.07;3.30;;;;;;;;;;5105347;28;20042;-71
2023/05/18 02:49:58;;;;;;;10.40;3.25;;;;;;;;;;5101798;28;20036;-71
2023/05/18 02:52:24;;;;;;;9.43;3.30;;;;;;;;;;5104715;27;20032;-71
2023/05/18 02:54:53;;;;;;;10.65;2.92;;;;;;;;;;5089214;28;20024;-71
2023/05/18 02:57:19;;;;;;;9.38;3.30;;;;;;;;;;5103407;28;20076;-71
2023/05/18 02:59:44;;;;;;;10.55;2.97;;;;;;;;;;5102243;28;20036;-71
2023/05/18 03:02:13;;;;;;;9.02;2.85;;;;;;;;;;5100714;27;20031;-71
2023/05/18 03:04:38;;;;;;;15.15;3.53;;;;;;;;;;5097649;27;20278;-71
2023/05/18 03:07:06;;;;;;;9.13;3.28;;;;;;;;;;5092748;27;20389;-71
2023/05/18 03:09:31;;;;;;;7.85;3.20;;;;;;;;;;5095020;28;20067;-71
2023/05/18 03:11:56;;;;;;;11.10;3.28;;;;;;;;;;5096678;27;20077;-71
2023/05/18 03:14:23;;;;;;;7.45;2.75;;;;;;;;;;5099930;28;20069;-71
2023/05/18 03:16:52;;;;;;;10.95;3.70;;;;;;;;;;5102085;27;20053;-71
2023/05/18 03:19:19;;;;;;;7.75;2.80;;;;;;;;;;5108081;27;20044;-71
2023/05/18 03:21:44;;;;;;;11.07;3.65;;;;;;;;;;5096696;28;20047;-71
2023/05/18 03:24:13;;;;;;;4.57;2.67;;;;;;;;;;5102522;28;20035;-71
2023/05/18 03:26:43;;;;;;;6.82;3.03;;;;;;;;;;5098534;28;20063;-71
2023/05/18 03:29:09;;;;;;;10.45;2.90;;;;;;;;;;5102000;27;20046;-71
2023/05/18 03:31:35;;;;;;;5.85;2.92;;;;;;;;;;5114607;27;20463;-71
2023/05/18 03:34:00;;;;;;;9.07;2.97;;;;;;;;;;5104636;27;20019;-71
2023/05/18 03:36:26;;;;;;;6.32;2.97;;;;;;;;;;5100864;28;20077;-71
2023/05/18 03:38:52;;;;;;;12.05;4.10;;;;;;;;;;5097457;28;20428;-71
2023/05/18 03:41:17;;;;;;;5.18;2.80;;;;;;;;;;5105729;27;20040;-71
2023/05/18 03:43:43;;;;;;;8.82;3.20;;;;;;;;;;5106818;28;20032;-71
2023/05/18 03:46:08;;;;;;;7.00;3.42;;;;;;;;;;5107787;27;20034;-71
2023/05/18 03:48:34;;;;;;;7.50;3.65;;;;;;;;;;5108435;28;20104;-71
2023/05/18 03:50:59;;;;;;;6.82;3.10;;;;;;;;;;5104568;27;20039;-71
2023/05/18 03:53:25;;;;;;;8.32;2.85;;;;;;;;;;5099610;28;20092;-71
2023/05/18 03:55:51;;;;;;;8.50;3.30;;;;;;;;;;5106318;27;20038;-71
2023/05/18 03:58:18;;;;;;;16.23;3.20;;;;;;;;;;5107508;27;20027;-71
2023/05/18 04:00:44;;;;;;;6.97;2.95;;;;;;;;;;5106793;28;20081;-71
2023/05/18 04:03:11;;;;;;;8.77;3.17;;;;;;;;;;5102282;28;20398;-71
2023/05/18 04:05:37;;;;;;;9.70;2.97;;;;;;;;;;5100339;28;20040;-71
2023/05/18 04:08:03;;;;;;;6.10;2.90;;;;;;;;;;5101418;27;20058;-71
2023/05/18 04:10:29;;;;;;;7.95;3.17;;;;;;;;;;5106348;27;20071;-71
2023/05/18 04:12:55;;;;;;;7.72;3.17;;;;;;;;;;5100907;27;20488;-71
2023/05/18 04:15:20;;;;;;;11.75;3.28;;;;;;;;;;5098701;28;20656;-71
2023/05/18 04:17:50;;;;;;;7.80;3.00;;;;;;;;;;5101489;27;20019;-71
2023/05/18 04:20:17;;;;;;;5.80;2.90;;;;;;;;;;5097451;28;20413;-72
2023/05/18 04:22:47;;;;;;;8.45;3.30;;;;;;;;;;5103144;27;20032;-71
2023/05/18 04:25:13;;;;;;;7.22;3.17;;;;;;;;;;5097871;28;20028;-71
2023/05/18 04:27:40;;;;;;;9.70;3.10;;;;;;;;;;5104333;27;20063;-71
2023/05/18 04:30:09;;;;;;;8.68;3.33;;;;;;;;;;5102004;28;20059;-73
2023/05/18 04:32:35;;;;;;;8.43;3.13;;;;;;;;;;5100965;27;20028;-71
2023/05/18 04:35:10;;;;;;;11.82;3.63;;;;;;;;;;5098288;28;20649;-70
2023/05/18 04:37:39;;;;;;;8.85;3.17;;;;;;;;;;5090332;27;20183;-71
2023/05/18 04:40:06;;;;;;;7.95;3.33;;;;;;;;;;5107733;27;20028;-71
2023/05/18 04:42:33;;;;;;;9.50;2.92;;;;;;;;;;5103329;28;20019;-70
2023/05/18 04:44:59;;;;;;;6.45;3.25;;;;;;;;;;5087056;28;21008;-70
2023/05/18 04:47:24;;;;;;;13.95;3.20;;;;;;;;;;5104831;27;20043;-70
2023/05/18 04:49:51;;;;;;;7.28;3.00;;;;;;;;;;5105703;28;20062;-71
2023/05/18 04:52:20;;;;;;;6.70;3.13;;;;;;;;;;5110201;27;20091;-72
2023/05/18 04:54:45;;;;;;;9.02;3.35;;;;;;;;;;5107281;28;20038;-71
2023/05/18 04:57:11;;;;;;;5.60;3.10;;;;;;;;;;5103951;27;20027;-70
2023/05/18 04:59:37;;;;;;;10.75;3.42;;;;;;;;;;5099068;27;20027;-71
2023/05/18 05:02:03;;;;;;;6.93;3.45;;;;;;;;;;5099556;28;20599;-71
2023/05/18 05:04:28;;;;;;;7.60;2.88;;;;;;;;;;5106042;27;20028;-71
2023/05/18 05:06:54;;;;;;;10.98;3.50;;;;;;;;;;5103905;28;20042;-72
2023/05/18 05:09:20;;;;;;;12.00;3.63;;;;;;;;;;5104916;27;20031;-71
2023/05/18 05:11:45;;;;;;;11.57;3.72;;;;;;;;;;5104557;27;20055;-71
2023/05/18 05:14:11;;;;;;;10.15;4.55;;;;;;;;;;5095785;27;20035;-71
2023/05/18 05:16:36;;;;;;;7.22;2.97;;;;;;;;;;5103202;27;20042;-71
2023/05/18 05:19:02;;;;;;;8.90;2.85;;;;;;;;;;5103892;27;20031;-71
2023/05/18 05:21:27;;;;;;;9.77;3.40;;;;;;;;;;5101968;28;20019;-71
2023/05/18 05:23:53;;;;;;;6.93;3.33;;;;;;;;;;5099620;28;20040;-72
2023/05/18 05:26:18;;;;;;;9.68;3.55;;;;;;;;;;5095231;27;20024;-71
2023/05/18 05:28:44;;;;;;;9.65;3.28;;;;;;;;;;5095532;27;20509;-71
2023/05/18 05:31:10;;;;;;;16.52;4.10;;;;;;;;;;5099498;27;20016;-71
2023/05/18 05:33:35;;;;;;;6.70;3.47;;;;;;;;;;5088720;27;20119;-71
2023/05/18 05:36:01;;;;;;;9.68;3.53;;;;;;;;;;5094104;27;20070;-71
2023/05/18 05:38:26;;;;;;;7.03;3.58;;;;;;;;;;5099987;27;20568;-71
2023/05/18 05:40:52;;;;;;;9.88;3.65;;;;;;;;;;5097532;27;20036;-71
2023/05/18 05:43:17;;;;;;;11.48;4.00;;;;;;;;;;5091740;27;20036;-71
2023/05/18 05:45:43;;;;;;;9.68;3.75;;;;;;;;;;5102586;27;20485;-71
2023/05/18 05:48:09;;;;;;;8.27;4.00;;;;;;;;;;5092872;27;20108;-71
2023/05/18 05:50:34;;;;;;;10.35;3.60;;;;;;;;;;5091908;27;20675;-71
2023/05/18 05:53:00;;;;;;;7.03;3.85;;;;;;;;;;5097884;27;20111;-71
2023/05/18 05:55:25;;;;;;;13.45;3.85;;;;;;;;;;5097677;27;20024;-71
2023/05/18 05:57:51;;;;;;;10.35;3.78;;;;;;;;;;5099175;27;20053;-71
2023/05/18 06:00:17;;;;;;;8.57;3.92;;;;;;;;;;5093522;27;20062;-72
2023/05/18 06:02:42;;;;;;;11.45;4.40;;;;;;;;;;5096532;27;20630;-71
2023/05/18 06:05:08;;;;;;;10.68;4.10;;;;;;;;;;5098048;27;20036;-72
2023/05/18 06:07:34;;;;;;;11.07;4.57;;;;;;;;;;5097151;27;20075;-71
2023/05/18 06:10:00;;;;;;;12.43;4.43;;;;;;;;;;5093833;27;20770;-71
2023/05/18 06:12:25;;;;;;;10.18;3.80;;;;;;;;;;5101260;27;20069;-71
2023/05/18 06:14:56;;;;;;;9.05;3.70;;;;;;;;;;5108427;27;20059;-72
2023/05/18 06:17:22;;;;;;;9.35;4.07;;;;;;;;;;5096847;27;20047;-71
2023/05/18 06:19:48;;;;;;;12.25;4.65;;;;;;;;;;5102098;27;20035;-72
2023/05/18 06:22:13;;;;;;;8.57;3.40;;;;;;;;;;5096272;27;20027;-71
2023/05/18 06:24:38;;;;;;;10.32;4.30;;;;;;;;;;5101528;27;20051;-71
2023/05/18 06:27:04;;;;;;;15.70;4.38;;;;;;;;;;5098647;27;20126;-71
2023/05/18 06:29:30;;;;;;;14.75;4.13;;;;;;;;;;5098279;27;20511;-72
2023/05/18 06:31:56;;;;;;;12.68;4.15;;;;;;;;;;5094604;28;20050;-71
2023/05/18 06:34:21;;;;;;;8.98;4.20;;;;;;;;;;5091332;28;20040;-72
2023/05/18 06:36:47;;;;;;;14.63;4.53;;;;;;;;;;5098504;27;20047;-72
2023/05/18 06:39:12;;;;;;;12.90;4.57;;;;;;;;;;5093841;28;20393;-71
2023/05/18 06:41:38;;;;;;;8.40;3.83;;;;;;;;;;5094065;27;20043;-71
2023/05/18 06:44:03;;;;;;;12.30;4.03;;;;;;;;;;5088807;28;20532;-72
2023/05/18 06:46:28;;;;;;;13.48;4.70;;;;;;;;;;5092097;27;20074;-72
2023/05/18 06:48:54;;;;;;;12.50;4.50;;;;;;;;;;5101777;28;20026;-71
2023/05/18 06:51:19;;;;;;;11.82;4.32;;;;;;;;;;5103811;27;20036;-71
2023/05/18 06:53:45;;;;;;;13.48;4.65;;;;;;;;;;5094483;27;20040;-71
2023/05/18 06:56:11;;;;;;;11.80;4.65;;;;;;;;;;5099066;27;20039;-72
2023/05/18 06:58:38;;;;;;;12.05;5.10;;;;;;;;;;5093235;27;20036;-72
2023/05/18 07:01:03;;;;;;;12.00;5.20;;;;;;;;;;5087656;27;20433;-71
2023/05/18 07:03:28;;;;;;;12.45;4.60;;;;;;;;;;5094352;27;20100;-72
2023/05/18 07:05:54;;;;;;;12.63;4.30;;;;;;;;;;5100367;27;20657;-71
2023/05/18 07:08:20;;;;;;;17.75;5.20;;;;;;;;;;5098307;27;20039;-71
2023/05/18 07:10:45;;;;;;;15.10;4.38;;;;;;;;;;5102475;27;20086;-72
2023/05/18 07:13:11;;;;;;;11.18;4.45;;;;;;;;;;5092382;27;20103;-72
2023/05/18 07:15:37;;;;;;;11.32;4.88;;;;;;;;;;5098787;27;20035;-72
2023/05/18 07:18:02;;;;;;;9.48;4.45;;;;;;;;;;5094410;27;20038;-71
2023/05/18 07:20:28;;;;;;;12.07;4.85;;;;;;;;;;5094383;27;20954;-72
2023/05/18 07:22:56;;;;;;;13.82;5.07;;;;;;;;;;5099937;27;20443;-71
2023/05/18 07:25:23;;;;;;;10.60;4.88;;;;;;;;;;5095429;27;20047;-71
2023/05/18 07:27:50;;;;;;;10.77;4.53;;;;;;;;;;5092699;28;20027;-72
2023/05/18 07:30:16;;;;;;;12.23;4.53;;;;;;;;;;5100660;27;20115;-71
2023/05/18 07:32:44;;;;;;;11.43;4.93;;;;;;;;;;5109465;27;20771;-71
2023/05/18 07:35:10;;;;;;;13.38;5.35;;;;;;;;;;5109667;27;20057;-71
2023/05/18 07:37:35;;;;;;;11.35;5.25;;;;;;;;;;5098035;27;20031;-71
2023/05/18 07:40:03;;;;;;;13.50;5.05;;;;;;;;;;5099519;27;20035;-72
2023/05/18 07:42:28;;;;;;;17.27;5.28;;;;;;;;;;5094167;27;20024;-72
2023/05/18 07:44:54;;;;;;;11.40;5.28;;;;;;;;;;5098736;27;20678;-72
2023/05/18 07:47:20;;;;;;;15.73;5.25;;;;;;;;;;5094796;27;20064;-72
2023/05/18 07:49:46;;;;;;;11.13;5.35;;;;;;;;;;5093497;27;20024;-71
2023/05/18 07:52:11;;;;;;;18.27;5.35;;;;;;;;;;5095011;27;20555;-71
2023/05/18 07:54:37;;;;;;;14.13;5.00;;;;;;;;;;5096391;27;20031;-72
2023/05/18 07:57:03;;;;;;;13.18;5.32;;;;;;;;;;5100056;27;20039;-71
2023/05/18 07:59:28;;;;;;;10.63;5.20;;;;;;;;;;5097776;27;20027;-72
2023/05/18 08:01:54;;;;;;;17.80;5.30;;;;;;;;;;5094040;27;20028;-71
2023/05/18 08:04:20;;;;;;;12.50;5.15;;;;;;;;;;5088388;27;20076;-72
2023/05/18 08:06:45;;;;;;;13.95;5.50;;;;;;;;;;5102567;27;20020;-71
2023/05/18 08:09:11;;;;;;;10.23;4.88;;;;;;;;;;5099193;27;20051;-72
2023/05/18 08:11:36;;;;;;;12.18;5.32;;;;;;;;;;5091434;27;20134;-71
2023/05/18 08:14:02;;;;;;;14.52;5.30;;;;;;;;;;5100180;27;20508;-71
2023/05/18 08:16:27;;;;;;;15.18;5.40;;;;;;;;;;5098918;27;20028;-72
2023/05/18 08:18:52;;;;;;;14.48;5.60;;;;;;;;;;5098844;28;20511;-71
2023/05/18 08:21:18;;;;;;;14.30;5.38;;;;;;;;;;5095199;27;20032;-71
2023/05/18 08:23:45;;;;;;;15.40;5.70;;;;;;;;;;5099441;27;20028;-71
2023/05/18 08:26:11;;;;;;;13.63;5.65;;;;;;;;;;5095295;27;20512;-72
2023/05/18 08:28:37;;;;;;;15.27;5.93;;;;;;;;;;5092876;27;20101;-72
2023/05/18 08:31:03;;;;;;;15.38;5.60;;;;;;;;;;5097083;27;20469;-72
2023/05/18 08:33:28;;;;;;;13.07;5.30;;;;;;;;;;5091381;27;20020;-71
2023/05/18 08:35:53;;;;;;;11.73;5.57;;;;;;;;;;5095589;27;20039;-72
2023/05/18 08:38:19;;;;;;;16.38;5.35;;;;;;;;;;5091441;27;20032;-71
2023/05/18 08:40:52;;;;;;;14.23;5.35;;;;;;;;;;5095313;27;20035;-72
2023/05/18 08:43:26;;;;;;;17.23;5.53;;;;;;;;;;5098255;27;20078;-71
2023/05/18 08:46:02;;;;;;;12.75;5.75;;;;;;;;;;5098145;27;20059;-72
2023/05/18 08:48:30;;;;;;;9.95;4.93;;;;;;;;;;5090287;27;20059;-71
2023/05/18 08:50:57;;;;;;;12.75;5.55;;;;;;;;;;5108275;27;20027;-71
2023/05/18 08:53:24;;;;;;;17.58;5.95;;;;;;;;;;5098714;27;20032;-71
2023/05/18 08:55:53;;;;;;;13.52;5.28;;;;;;;;;;5123431;27;20032;-71
2023/05/18 08:58:22;;;;;;;11.35;5.82;;;;;;;;;;5112659;27;20039;-71
2023/05/18 09:00:52;;;;;;;14.57;5.90;;;;;;;;;;5111978;27;20045;-72
2023/05/18 09:03:18;;;;;;;15.20;5.63;;;;;;;;;;5093096;28;20042;-72
2023/05/18 09:05:45;;;;;;;18.63;6.35;;;;;;;;;;5097343;27;20043;-71
2023/05/18 09:08:11;;;;;;;14.07;6.10;;;;;;;;;;5093940;27;20082;-71
2023/05/18 09:10:38;;;;;;;14.90;5.72;;;;;;;;;;5096358;27;20044;-71
2023/05/18 09:13:04;;;;;;;9.50;5.35;;;;;;;;;;5095193;27;20030;-71
2023/05/18 09:15:30;;;;;;;10.02;5.22;;;;;;;;;;5093753;27;20069;-71
2023/05/18 09:17:55;;;;;;;14.10;5.30;;;;;;;;;;5088295;27;20654;-72
2023/05/18 09:20:21;;;;;;;11.35;5.75;;;;;;;;;;5095026;27;20043;-71
2023/05/18 09:22:50;;;;;;;13.40;5.30;;;;;;;;;;5095961;27;20061;-71
2023/05/18 09:25:17;;;;;;;12.95;5.30;;;;;;;;;;5100675;27;20123;-72
2023/05/18 09:27:42;;;;;;;11.77;5.45;;;;;;;;;;5090921;27;20023;-71
2023/05/18 09:30:11;;;;;;;9.85;4.90;;;;;;;;;;5095541;27;20101;-71
2023/05/18 09:32:36;;;;;;;15.18;5.20;;;;;;;;;;5095190;27;20204;-72
2023/05/18 09:35:06;;;;;;;10.07;3.50;;;;;;;;;;5089430;27;20583;-72
2023/05/18 09:37:32;;;;;;;9.85;3.78;;;;;;;;;;5094600;27;20437;-72
2023/05/18 09:40:06;;;;;;;11.48;3.85;;;;;;;;;;5093371;27;20028;-71
2023/05/18 09:42:40;;;;;;;14.98;4.85;;;;;;;;;;5111775;27;20560;-71
2023/05/18 09:45:17;;;;;;;13.05;4.47;;;;;;;;;;5096850;27;20119;-71
2023/05/18 09:47:42;;;;;;;10.25;4.07;;;;;;;;;;5091563;27;20032;-71
2023/05/18 09:50:08;;;;;;;13.15;4.55;;;;;;;;;;5096852;27;20042;-71
2023/05/18 09:52:44;;;;;;;11.02;4.05;;;;;;;;;;5095609;27;20093;-71
2023/05/18 09:55:11;;;;;;;9.25;4.10;;;;;;;;;;5095526;27;20125;-71
2023/05/18 09:57:42;;;;;;;11.10;4.60;;;;;;;;;;5092081;27;20027;-71
2023/05/18 10:00:12;;;;;;;7.18;3.95;;;;;;;;;;5095155;27;20062;-71
2023/05/18 10:02:42;;;;;;;8.13;3.92;;;;;;;;;;5093444;27;20044;-72
2023/05/18 10:05:26;;;;;;;8.23;4.22;;;;;;;;;;5099295;27;20127;-71
2023/05/18 10:07:52;;;;;;;8.43;4.10;;;;;;;;;;5091774;27;20417;-71
2023/05/18 10:10:25;;;;;;;11.43;4.07;;;;;;;;;;5094288;27;20043;-71
2023/05/18 10:12:51;;;;;;;8.48;3.42;;;;;;;;;;5103398;27;20023;-72
2023/05/18 10:15:19;;;;;;;10.93;4.20;;;;;;;;;;5104703;27;20040;-71
2023/05/18 10:17:46;;;;;;;9.02;3.58;;;;;;;;;;5109224;27;20038;-72
2023/05/18 10:20:16;;;;;;;8.35;3.58;;;;;;;;;;5101778;27;20039;-71
2023/05/18 10:22:44;;;;;;;12.25;3.50;;;;;;;;;;5092953;27;20055;-72
2023/05/18 10:25:10;;;;;;;9.77;3.90;;;;;;;;;;5094272;27;20404;-71
2023/05/18 10:27:36;;;;;;;9.55;4.03;;;;;;;;;;5093930;27;20028;-71
2023/05/18 10:30:06;;;;;;;9.70;3.60;;;;;;;;;;5092257;27;20038;-72
2023/05/18 10:32:35;;;;;;;10.70;4.10;;;;;;;;;;5094682;27;20425;-71
2023/05/18 10:35:02;;;;;;;12.25;3.85;;;;;;;;;;5096709;27;20550;-72
2023/05/18 10:37:29;;;;;;;6.82;3.67;;;;;;;;;;5096261;27;20123;-72
2023/05/18 10:39:57;;;;;;;9.88;4.38;;;;;;;;;;5099711;28;20047;-72
2023/05/18 10:42:24;;;;;;;15.55;4.78;;;;;;;;;;5100453;28;20114;-72
2023/05/18 10:44:52;;;;;;;10.07;4.80;;;;;;;;;;5095301;27;20043;-72
2023/05/18 10:47:19;;;;;;;12.40;4.82;;;;;;;;;;5092952;28;20031;-71
2023/05/18 10:49:48;;;;;;;8.25;4.57;;;;;;;;;;5094140;27;20427;-72
2023/05/18 10:52:15;;;;;;;11.32;5.13;;;;;;;;;;5102479;27;20047;-72
2023/05/18 10:54:41;;;;;;;11.13;5.30;;;;;;;;;;5090748;28;20407;-71
2023/05/18 10:57:10;;;;;;;10.25;4.70;;;;;;;;;;5087138;28;20032;-72
2023/05/18 10:59:42;;;;;;;10.73;5.32;;;;;;;;;;5103479;27;20115;-72
2023/05/18 11:02:12;;;;;;;12.05;4.47;;;;;;;;;;5102193;28;20070;-72
2023/05/18 11:04:39;;;;;;;8.90;4.93;;;;;;;;;;5097080;28;20042;-72
2023/05/18 11:07:08;;;;;;;10.68;4.57;;;;;;;;;;5089955;28;20034;-72
2023/05/18 11:09:34;;;;;;;7.57;4.40;;;;;;;;;;5100270;28;21244;-72
2023/05/18 11:11:59;;;;;;;11.18;4.45;;;;;;;;;;5095432;28;20040;-72
2023/05/18 11:14:26;;;;;;;9.00;4.40;;;;;;;;;;5090174;28;20069;-72
2023/05/18 11:16:52;;;;;;;8.95;3.85;;;;;;;;;;5093781;27;20035;-72
2023/05/18 11:19:19;;;;;;;9.63;4.03;;;;;;;;;;5103250;27;20051;-72
2023/05/18 11:21:45;;;;;;;8.98;3.97;;;;;;;;;;5098213;28;20044;-72
2023/05/18 11:24:32;;;;;;;11.52;4.50;;;;;;;;;;5096474;27;20534;-72
2023/05/18 11:27:02;;;;;;;6.55;4.18;;;;;;;;;;5092698;28;20036;-72
2023/05/18 11:29:41;;;;;;;11.95;4.57;;;;;;;;;;5101781;27;20038;-71
2023/05/18 11:32:27;;;;;;;9.15;5.20;;;;;;;;;;5096920;27;20042;-72
2023/05/18 11:34:53;;;;;;;13.43;5.03;;;;;;;;;;5098628;27;20043;-70
2023/05/18 11:37:37;;;;;;;8.55;4.50;;;;;;;;;;5106193;27;20054;-72
2023/05/18 11:40:04;;;;;;;10.55;4.63;;;;;;;;;;5102547;27;20020;-72
2023/05/18 11:42:33;;;;;;;14.13;5.05;;;;;;;;;;5105645;27;20061;-72
2023/05/18 11:45:08;;;;;;;11.32;5.13;;;;;;;;;;5100679;27;20043;-72
2023/05/18 11:47:39;;;;;;;10.05;4.20;;;;;;;;;;5102592;27;20044;-71
2023/05/18 11:50:09;;;;;;;10.90;3.80;;;;;;;;;;5099371;27;20050;-72
2023/05/18 11:52:48;;;;;;;11.02;4.05;;;;;;;;;;5101503;27;20051;-72
2023/05/18 11:55:15;;;;;;;10.38;4.55;;;;;;;;;;5092825;27;20047;-71
2023/05/18 11:57:44;;;;;;;9.27;4.50;;;;;;;;;;5096228;28;20531;-72
2023/05/18 12:00:10;;;;;;;8.55;4.38;;;;;;;;;;5103233;27;20070;-72
2023/05/18 12:02:36;;;;;;;8.15;4.32;;;;;;;;;;5094545;27;20470;-72
2023/05/18 12:05:07;;;;;;;10.85;4.47;;;;;;;;;;5097626;27;21467;-72
2023/05/18 12:07:34;;;;;;;6.93;4.05;;;;;;;;;;5098185;27;20415;-72
2023/05/18 12:10:06;;;;;;;14.02;4.40;;;;;;;;;;5097981;27;20051;-72
2023/05/18 12:12:32;;;;;;;8.63;4.70;;;;;;;;;;5095792;27;20035;-72
2023/05/18 12:14:59;;;;;;;8.45;4.10;;;;;;;;;;5096776;27;20453;-72
2023/05/18 12:17:42;;;;;;;11.20;4.85;;;;;;;;;;5100874;27;20129;-72
2023/05/18 12:20:28;;;;;;;8.65;4.82;;;;;;;;;;5095232;27;20043;-72
2023/05/18 12:22:54;;;;;;;11.13;5.35;;;;;;;;;;5095321;28;20110;-72
2023/05/18 12:25:22;;;;;;;11.93;4.82;;;;;;;;;;5103551;27;20035;-71
2023/05/18 12:27:48;;;;;;;8.57;5.90;;;;;;;;;;5100214;27;20055;-73
2023/05/18 12:30:19;;;;;;;12.68;5.40;;;;;;;;;;5091757;27;20039;-72
2023/05/18 12:32:45;;;;;;;10.60;5.78;;;;;;;;;;5093888;27;20774;-72
2023/05/18 12:35:11;;;;;;;9.60;5.47;;;;;;;;;;5101103;27;20127;-72
2023/05/18 12:37:43;;;;;;;12.95;5.43;;;;;;;;;;5096136;27;20114;-72
2023/05/18 12:40:10;;;;;;;13.60;5.65;;;;;;;;;;5095795;28;20111;-72
2023/05/18 12:42:35;;;;;;;12.02;6.15;;;;;;;;;;5093517;28;20031;-73
2023/05/18 12:45:01;;;;;;;9.65;5.38;;;;;;;;;;5099164;27;20043;-73
2023/05/18 12:47:31;;;;;;;10.95;5.55;;;;;;;;;;5091623;27;20051;-73
2023/05/18 12:50:01;;;;;;;9.50;4.60;;;;;;;;;;5092459;27;20039;-72
2023/05/18 12:52:27;;;;;;;11.52;4.90;;;;;;;;;;5092515;27;20451;-73
2023/05/18 12:54:59;;;;;;;13.25;5.55;;;;;;;;;;5107062;27;20070;-72
2023/05/18 12:57:26;;;;;;;8.77;5.05;;;;;;;;;;5106727;27;20055;-72
2023/05/18 12:59:53;;;;;;;11.35;5.82;;;;;;;;;;5102716;27;20100;-72
2023/05/18 13:02:32;;;;;;;9.77;5.15;;;;;;;;;;5103320;27;20134;-71
2023/05/18 13:05:24;;;;;;;10.52;5.22;;;;;;;;;;5093469;27;20039;-72
2023/05/18 13:07:49;;;;;;;10.05;4.82;;;;;;;;;;5089858;27;20744;-72
2023/05/18 13:10:17;;;;;;;13.23;5.75;;;;;;;;;;5098791;27;20050;-72
2023/05/18 13:12:44;;;;;;;9.95;4.93;;;;;;;;;;5099122;28;20536;-72
2023/05/18 13:15:20;;;;;;;10.98;5.55;;;;;;;;;;5098449;27;20039;-72
2023/05/18 13:17:55;;;;;;;9.10;5.57;;;;;;;;;;5094618;28;20039;-72
2023/05/18 13:20:21;;;;;;;9.68;4.85;;;;;;;;;;5092374;27;20048;-72
2023/05/18 13:22:48;;;;;;;8.73;4.82;;;;;;;;;;5094194;27;20044;-71
2023/05/18 13:25:14;;;;;;;10.68;5.28;;;;;;;;;;5094815;27;20080;-72
2023/05/18 13:27:39;;;;;;;9.38;5.10;;;;;;;;;;5097213;28;20028;-72
2023/05/18 13:30:05;;;;;;;9.70;4.90;;;;;;;;;;5095282;28;20639;-72
2023/05/18 13:32:32;;;;;;;10.25;5.43;;;;;;;;;;5098108;27;20097;-72
2023/05/18 13:34:57;;;;;;;9.93;4.88;;;;;;;;;;5092517;27;20035;-72
2023/05/18 13:37:23;;;;;;;9.15;5.15;;;;;;;;;;5095804;27;20039;-73
2023/05/18 13:39:49;;;;;;;9.73;5.45;;;;;;;;;;5090920;27;20036;-72
2023/05/18 13:42:14;;;;;;;8.30;4.53;;;;;;;;;;5093474;27;20702;-72
2023/05/18 13:44:39;;;;;;;8.50;4.75;;;;;;;;;;5091439;27;21094;-72
2023/05/18 13:47:05;;;;;;;10.93;4.95;;;;;;;;;;5086641;27;20128;-72
2023/05/18 13:49:30;;;;;;;15.48;4.53;;;;;;;;;;5095347;27;20131;-72
2023/05/18 13:51:58;;;;;;;9.90;5.07;;;;;;;;;;5083989;28;20027;-72
2023/05/18 13:54:24;;;;;;;8.15;4.65;;;;;;;;;;5090063;27;20571;-72
2023/05/18 13:56:49;;;;;;;9.45;4.90;;;;;;;;;;5098088;27;20043;-72
2023/05/18 13:59:18;;;;;;;8.07;5.30;;;;;;;;;;5099104;27;20027;-72
2023/05/18 14:01:46;;;;;;;9.35;5.22;;;;;;;;;;5106943;27;20043;-72
2023/05/18 14:04:11;;;;;;;10.30;4.90;;;;;;;;;;5096623;27;20031;-72
2023/05/18 14:06:37;;;;;;;9.38;4.97;;;;;;;;;;5097564;27;20019;-72
2023/05/18 14:09:02;;;;;;;9.57;5.80;;;;;;;;;;5098074;27;20049;-72
2023/05/18 14:11:27;;;;;;;9.30;5.68;;;;;;;;;;5098363;27;20112;-72
2023/05/18 14:13:53;;;;;;;14.00;5.13;;;;;;;;;;5099685;27;20513;-72
2023/05/18 14:16:18;;;;;;;15.13;5.32;;;;;;;;;;5103394;27;20421;-72
2023/05/18 14:18:43;;;;;;;9.27;5.13;;;;;;;;;;5102031;27;20046;-72
2023/05/18 14:21:09;;;;;;;13.73;4.97;;;;;;;;;;5103313;27;20565;-72
2023/05/18 14:23:34;;;;;;;11.80;5.03;;;;;;;;;;5101577;27;20065;-72
2023/05/18 14:26:00;;;;;;;10.57;4.53;;;;;;;;;;5099515;27;20039;-72
2023/05/18 14:28:25;;;;;;;9.65;4.82;;;;;;;;;;5101036;27;20118;-72
2023/05/18 14:30:50;;;;;;;8.88;5.20;;;;;;;;;;5103410;28;20126;-72
2023/05/18 14:33:16;;;;;;;9.45;4.95;;;;;;;;;;5105863;28;20031;-72
2023/05/18 14:35:41;;;;;;;9.55;5.60;;;;;;;;;;5102348;27;20047;-72
2023/05/18 14:38:06;;;;;;;10.13;5.00;;;;;;;;;;5092947;27;20153;-72